ZBAA Airport Information

Runway Information
Runway 01 Length 12468 ft width 197 ft
Elevation 94 ft Threshold 0 ft Heading 353
Runway 19 Length 12468 ft Width 197 ft
Elevation 84 ft Threshold 0 ft Heading 173
Runway 18L Length 12468 ft width 197 ft
Elevation 110 ft Threshold 0 ft Heading 173
Runway 36R Length 12468 ft Width 197 ft
Elevation 99 ft Threshold 0 ft Heading 353
Runway 18R Length 10499 ft width 164 ft
Elevation 116 ft Threshold 0 ft Heading 173
Runway 36L Length 10499 ft Width 164 ft
Elevation 107 ft Threshold 0 ft Heading 353
Airport Frequencies
Type APP Name BEIJING AP Frequency 119.6 MHZ
Type APP Name BEIJING AP Frequency 119.7 MHZ
Type APP Name BEIJING AP Frequency 120.6 MHZ
Type APP Name BEIJING AP Frequency 121.1 MHZ
Type APP Name BEIJING AP Frequency 126.1 MHZ
Type APP Name BEIJING AP Frequency 127.75 MHZ
Type ATIS Name BEIJING AT Frequency 127.6 MHZ
Type CLD Name BEIJING DE Frequency 121.6 MHZ
Type GND Name GND EAST Frequency 121.7 MHZ
Type GND Name BEIJING GN Frequency 121.7 MHZ
Type GND Name GND WEST Frequency 121.9 MHZ
Type TWR Name BEIJING EA Frequency 118.5 MHZ
Type TWR Name BEIJING W Frequency 124.3 MHZ
Airport Navaids
Type VOR-DME Name Beijing Frequency 114700 KHZ
Type VOR-DME Name Shaziying Frequency 117200 KHZ
Airport Weather Information & NOTAM
ADDS - METARS form results

(1145 UTC 20 January 2020)
Data provider http://aviationweather.gov/metar/data/
 
METAR text: ZBAA 201130Z 14001MPS CAVOK M03/M16 Q1027 NOSIG
Conditions at: ZBAA (BEIJING/PEKING , CN) observed 1130 UTC 20 January 2020
Temperature: -3.0°C (27°F)
Dewpoint: -16.0°C ( 3°F) [RH = 36%]
Pressure (altimeter): 30.32 inches Hg (1027.0 mb)
Winds: from the SE (140 degrees) at 2 MPH (2 knots; 1.0 m/s)
Visibility: 6 or more miles (10+ km)
Ceiling: ceiling and visibility are OK
Clouds: unknown
Weather: no significant weather observed at this time

METAR text: ZBAA 201100Z 16002MPS 140V240 CAVOK M02/M16 Q1027 NOSIG
Conditions at: ZBAA (BEIJING/PEKING , CN) observed 1100 UTC 20 January 2020
Temperature: -2.0°C (28°F)
Dewpoint: -16.0°C ( 3°F) [RH = 33%]
Pressure (altimeter): 30.32 inches Hg (1027.0 mb)
Winds: from the SSE (160 degrees) at 5 MPH (4 knots; 2.1 m/s)
Visibility: 6 or more miles (10+ km)
Ceiling: ceiling and visibility are OK
Clouds: unknown
Weather: no significant weather observed at this time

Forecast for: ZBAA (BEIJING/PEKING , CN)
Text: TAF ZBAA 200920Z 2012/2112 18004MPS CAVOK TX05/2107Z TNM08/2021Z
Forecast period: 1200 UTC 20 January 2020 to 1200 UTC 21 January 2020
Forecast type: FROM: standard forecast or significant change
Winds: from the S (180 degrees) at 9 MPH (8 knots; 4.1 m/s)
Visibility: 6 or more miles 10+ km)
Ceiling: unknown
Clouds: missing
Weather: no significant weather forecast for this period